sensor_id;sensor_type;location;lat;lon;timestamp;pressure;altitude;pressure_sealevel;temperature;humidity
51496;BME280;37572;52.094;4.870;2022-09-09T00:02:11;100679.38;;;16.33;94.50
51496;BME280;37572;52.094;4.870;2022-09-09T00:04:40;100684.66;;;16.00;95.39
51496;BME280;37572;52.094;4.870;2022-09-09T00:07:10;100689.78;;;16.19;95.59
51496;BME280;37572;52.094;4.870;2022-09-09T00:09:40;100692.66;;;16.12;95.70
51496;BME280;37572;52.094;4.870;2022-09-09T00:12:11;100686.94;;;16.09;96.12
51496;BME280;37572;52.094;4.870;2022-09-09T00:17:49;100678.84;;;16.14;96.18
51496;BME280;37572;52.094;4.870;2022-09-09T00:19:50;100684.38;;;16.19;95.93
51496;BME280;37572;52.094;4.870;2022-09-09T00:22:19;100685.63;;;16.11;95.59
51496;BME280;37572;52.094;4.870;2022-09-09T00:24:49;100687.00;;;15.97;96.37
51496;BME280;37572;52.094;4.870;2022-09-09T00:30:16;100684.22;;;15.75;97.42
51496;BME280;37572;52.094;4.870;2022-09-09T00:32:44;100689.25;;;15.83;97.77
51496;BME280;37572;52.094;4.870;2022-09-09T00:37:35;100683.31;;;15.86;97.89
51496;BME280;37572;52.094;4.870;2022-09-09T00:40:01;100673.38;;;15.92;97.67
51496;BME280;37572;52.094;4.870;2022-09-09T00:42:45;100674.53;;;15.96;97.32
51496;BME280;37572;52.094;4.870;2022-09-09T00:45:37;100671.81;;;15.79;98.07
51496;BME280;37572;52.094;4.870;2022-09-09T00:48:09;100671.81;;;15.79;98.23
51496;BME280;37572;52.094;4.870;2022-09-09T00:50:44;100667.59;;;15.71;98.30
51496;BME280;37572;52.094;4.870;2022-09-09T00:53:15;100667.25;;;15.67;98.51
51496;BME280;37572;52.094;4.870;2022-09-09T00:55:48;100664.47;;;15.62;98.87
51496;BME280;37572;52.094;4.870;2022-09-09T00:58:16;100668.66;;;15.70;98.02
51496;BME280;37572;52.094;4.870;2022-09-09T01:01:24;100662.66;;;15.68;98.32
51496;BME280;37572;52.094;4.870;2022-09-09T01:03:37;100665.56;;;15.78;98.07
51496;BME280;37572;52.094;4.870;2022-09-09T01:11:25;100669.56;;;15.76;97.38
51496;BME280;37572;52.094;4.870;2022-09-09T01:16:45;100667.59;;;15.71;97.44
51496;BME280;37572;52.094;4.870;2022-09-09T01:19:14;100673.13;;;15.59;97.86
51496;BME280;37572;52.094;4.870;2022-09-09T01:21:46;100664.13;;;15.59;98.32
51496;BME280;37572;52.094;4.870;2022-09-09T01:24:27;100664.97;;;15.59;98.30
51496;BME280;37572;52.094;4.870;2022-09-09T01:26:58;100667.69;;;15.59;98.19
51496;BME280;37572;52.094;4.870;2022-09-09T01:29:25;100660.09;;;15.61;98.36
51496;BME280;37572;52.094;4.870;2022-09-09T01:34:18;100657.31;;;15.56;97.83
51496;BME280;37572;52.094;4.870;2022-09-09T01:36:45;100646.97;;;15.53;98.10
51496;BME280;37572;52.094;4.870;2022-09-09T01:39:12;100653.44;;;15.52;98.16
51496;BME280;37572;52.094;4.870;2022-09-09T01:41:38;100650.16;;;15.50;98.08
51496;BME280;37572;52.094;4.870;2022-09-09T01:44:03;100642.41;;;15.42;98.38
51496;BME280;37572;52.094;4.870;2022-09-09T01:46:29;100642.16;;;15.43;98.44
51496;BME280;37572;52.094;4.870;2022-09-09T01:48:55;100638.09;;;15.41;98.44
51496;BME280;37572;52.094;4.870;2022-09-09T01:51:22;100626.06;;;15.37;98.61
51496;BME280;37572;52.094;4.870;2022-09-09T01:53:47;100631.00;;;15.40;98.93
51496;BME280;37572;52.094;4.870;2022-09-09T02:04:39;100630.50;;;15.43;99.44
51496;BME280;37572;52.094;4.870;2022-09-09T02:07:06;100630.44;;;15.38;98.99
51496;BME280;37572;52.094;4.870;2022-09-09T02:09:35;100641.03;;;15.39;99.17
51496;BME280;37572;52.094;4.870;2022-09-09T02:12:05;100629.28;;;15.33;99.18
51496;BME280;37572;52.094;4.870;2022-09-09T02:14:36;100639.69;;;15.42;98.85
51496;BME280;37572;52.094;4.870;2022-09-09T02:17:08;100636.19;;;15.41;98.92
51496;BME280;37572;52.094;4.870;2022-09-09T02:19:37;100632.22;;;15.49;98.72
51496;BME280;37572;52.094;4.870;2022-09-09T02:22:04;100630.00;;;15.46;98.54
51496;BME280;37572;52.094;4.870;2022-09-09T02:24:30;100627.06;;;15.47;98.53
51496;BME280;37572;52.094;4.870;2022-09-09T02:26:58;100627.63;;;15.49;98.66
51496;BME280;37572;52.094;4.870;2022-09-09T02:29:27;100625.09;;;15.43;98.55
51496;BME280;37572;52.094;4.870;2022-09-09T02:31:54;100626.25;;;15.47;98.81
51496;BME280;37572;52.094;4.870;2022-09-09T02:34:21;100628.34;;;15.45;98.85
51496;BME280;37572;52.094;4.870;2022-09-09T02:36:49;100622.38;;;15.43;98.79
51496;BME280;37572;52.094;4.870;2022-09-09T02:39:16;100615.63;;;15.45;98.65
51496;BME280;37572;52.094;4.870;2022-09-09T02:41:41;100612.19;;;15.50;98.65
51496;BME280;37572;52.094;4.870;2022-09-09T02:44:11;100607.50;;;15.45;98.45
51496;BME280;37572;52.094;4.870;2022-09-09T02:46:53;100614.88;;;15.50;98.13
51496;BME280;37572;52.094;4.870;2022-09-09T02:52:06;100609.13;;;15.46;97.90
51496;BME280;37572;52.094;4.870;2022-09-09T02:54:35;100603.06;;;15.39;98.13
51496;BME280;37572;52.094;4.870;2022-09-09T02:57:22;100603.56;;;15.36;98.46
51496;BME280;37572;52.094;4.870;2022-09-09T02:59:48;100603.53;;;15.19;98.41
51496;BME280;37572;52.094;4.870;2022-09-09T03:02:14;100602.47;;;15.20;98.71
51496;BME280;37572;52.094;4.870;2022-09-09T03:04:40;100601.97;;;15.23;98.95
51496;BME280;37572;52.094;4.870;2022-09-09T03:07:06;100600.16;;;15.12;99.06
51496;BME280;37572;52.094;4.870;2022-09-09T03:09:32;100598.50;;;15.11;99.08
51496;BME280;37572;52.094;4.870;2022-09-09T03:12:00;100596.47;;;15.18;99.02
51496;BME280;37572;52.094;4.870;2022-09-09T03:14:25;100595.78;;;15.11;99.58
51496;BME280;37572;52.094;4.870;2022-09-09T03:16:51;100595.31;;;15.14;99.51
51496;BME280;37572;52.094;4.870;2022-09-09T03:19:16;100594.81;;;15.17;99.63
51496;BME280;37572;52.094;4.870;2022-09-09T03:21:42;100596.72;;;15.16;98.83
51496;BME280;37572;52.094;4.870;2022-09-09T03:24:07;100595.91;;;15.16;98.96
51496;BME280;37572;52.094;4.870;2022-09-09T03:26:32;100591.34;;;15.05;99.50
51496;BME280;37572;52.094;4.870;2022-09-09T03:28:57;100601.22;;;15.11;99.44
51496;BME280;37572;52.094;4.870;2022-09-09T03:31:25;100600.47;;;15.15;99.31
51496;BME280;37572;52.094;4.870;2022-09-09T03:33:50;100598.63;;;15.16;99.01
51496;BME280;37572;52.094;4.870;2022-09-09T03:36:15;100600.72;;;15.14;99.17
51496;BME280;37572;52.094;4.870;2022-09-09T03:38:41;100593.25;;;15.04;98.81
51496;BME280;37572;52.094;4.870;2022-09-09T03:41:06;100596.59;;;15.11;99.11
51496;BME280;37572;52.094;4.870;2022-09-09T03:43:31;100594.00;;;15.00;99.33
51496;BME280;37572;52.094;4.870;2022-09-09T03:45:57;100594.22;;;14.98;99.71
51496;BME280;37572;52.094;4.870;2022-09-09T03:48:23;100600.94;;;14.95;99.64
51496;BME280;37572;52.094;4.870;2022-09-09T03:50:50;100606.47;;;15.01;99.12
51496;BME280;37572;52.094;4.870;2022-09-09T03:53:16;100589.94;;;15.02;99.19
51496;BME280;37572;52.094;4.870;2022-09-09T03:55:45;100598.00;;;14.97;99.40
51496;BME280;37572;52.094;4.870;2022-09-09T03:58:11;100596.03;;;14.92;99.18
51496;BME280;37572;52.094;4.870;2022-09-09T04:00:36;100586.72;;;14.88;99.53
51496;BME280;37572;52.094;4.870;2022-09-09T04:03:03;100586.72;;;14.88;99.31
51496;BME280;37572;52.094;4.870;2022-09-09T04:05:28;100584.97;;;14.82;99.37
51496;BME280;37572;52.094;4.870;2022-09-09T04:07:53;100586.22;;;14.91;99.35
51496;BME280;37572;52.094;4.870;2022-09-09T04:10:19;100583.88;;;14.95;99.21
51496;BME280;37572;52.094;4.870;2022-09-09T04:12:45;100584.00;;;14.88;99.13
51496;BME280;37572;52.094;4.870;2022-09-09T04:15:11;100584.59;;;14.90;99.27
51496;BME280;37572;52.094;4.870;2022-09-09T04:17:36;100575.63;;;14.90;99.10
51496;BME280;37572;52.094;4.870;2022-09-09T04:20:01;100568.22;;;14.85;99.33
51496;BME280;37572;52.094;4.870;2022-09-09T04:22:26;100573.66;;;14.85;99.61
51496;BME280;37572;52.094;4.870;2022-09-09T04:24:51;100566.59;;;14.84;99.48
51496;BME280;37572;52.094;4.870;2022-09-09T04:27:17;100564.47;;;14.86;99.44
51496;BME280;37572;52.094;4.870;2022-09-09T04:29:42;100556.66;;;14.90;99.34
51496;BME280;37572;52.094;4.870;2022-09-09T04:32:07;100568.59;;;14.89;99.22
51496;BME280;37572;52.094;4.870;2022-09-09T04:34:32;100565.88;;;14.89;99.31
51496;BME280;37572;52.094;4.870;2022-09-09T04:36:57;100565.03;;;14.88;99.49
51496;BME280;37572;52.094;4.870;2022-09-09T04:39:23;100566.38;;;14.86;99.54
51496;BME280;37572;52.094;4.870;2022-09-09T04:41:48;100562.44;;;14.93;99.30
51496;BME280;37572;52.094;4.870;2022-09-09T04:44:13;100567.25;;;14.91;99.12
51496;BME280;37572;52.094;4.870;2022-09-09T04:46:38;100573.84;;;14.95;98.83
51496;BME280;37572;52.094;4.870;2022-09-09T04:49:03;100564.91;;;14.95;99.29
51496;BME280;37572;52.094;4.870;2022-09-09T04:51:29;100563.72;;;14.91;99.54
51496;BME280;37572;52.094;4.870;2022-09-09T04:53:56;100561.34;;;14.94;99.31
51496;BME280;37572;52.094;4.870;2022-09-09T04:56:21;100555.03;;;14.89;99.33
51496;BME280;37572;52.094;4.870;2022-09-09T04:58:46;100557.00;;;14.93;99.08
51496;BME280;37572;52.094;4.870;2022-09-09T05:01:13;100554.78;;;14.90;99.52
51496;BME280;37572;52.094;4.870;2022-09-09T05:03:39;100554.84;;;14.95;98.95
51496;BME280;37572;52.094;4.870;2022-09-09T05:08:29;100551.22;;;14.90;99.49
51496;BME280;37572;52.094;4.870;2022-09-09T05:10:54;100559.47;;;14.95;99.40
51496;BME280;37572;52.094;4.870;2022-09-09T05:13:20;100556.84;;;15.00;99.21
51496;BME280;37572;52.094;4.870;2022-09-09T05:15:51;100551.22;;;14.90;99.80
51496;BME280;37572;52.094;4.870;2022-09-09T05:18:16;100551.59;;;14.93;99.61
51496;BME280;37572;52.094;4.870;2022-09-09T05:20:41;100544.81;;;14.96;99.66
51496;BME280;37572;52.094;4.870;2022-09-09T05:23:07;100547.03;;;14.99;99.72
51496;BME280;37572;52.094;4.870;2022-09-09T05:25:33;100545.66;;;14.96;99.85
51496;BME280;37572;52.094;4.870;2022-09-09T05:27:58;100553.31;;;15.00;99.73
51496;BME280;37572;52.094;4.870;2022-09-09T05:30:24;100548.44;;;15.02;99.69
51496;BME280;37572;52.094;4.870;2022-09-09T05:32:51;100548.28;;;15.08;99.62
51496;BME280;37572;52.094;4.870;2022-09-09T05:35:16;100552.97;;;15.13;99.73
51496;BME280;37572;52.094;4.870;2022-09-09T05:37:43;100554.72;;;15.19;99.40
51496;BME280;37572;52.094;4.870;2022-09-09T05:40:09;100548.22;;;15.20;99.40
51496;BME280;37572;52.094;4.870;2022-09-09T05:42:35;100556.44;;;15.25;99.57
51496;BME280;37572;52.094;4.870;2022-09-09T05:45:01;100553.31;;;15.33;99.45
51496;BME280;37572;52.094;4.870;2022-09-09T05:47:26;100550.53;;;15.28;99.08
51496;BME280;37572;52.094;4.870;2022-09-09T05:49:52;100551.75;;;15.38;98.73
51496;BME280;37572;52.094;4.870;2022-09-09T05:52:17;100555.59;;;15.42;98.60
51496;BME280;37572;52.094;4.870;2022-09-09T05:54:43;100551.31;;;15.46;98.50
51496;BME280;37572;52.094;4.870;2022-09-09T05:57:08;100558.41;;;15.47;98.53
51496;BME280;37572;52.094;4.870;2022-09-09T05:59:35;100553.84;;;15.52;98.74
51496;BME280;37572;52.094;4.870;2022-09-09T06:02:00;100557.03;;;15.66;98.80
51496;BME280;37572;52.094;4.870;2022-09-09T06:04:25;100552.13;;;15.80;99.00
51496;BME280;37572;52.094;4.870;2022-09-09T06:06:51;100552.63;;;15.99;98.40
51496;BME280;37572;52.094;4.870;2022-09-09T06:09:16;100556.34;;;16.15;98.10
51496;BME280;37572;52.094;4.870;2022-09-09T06:11:41;100568.84;;;16.38;96.84
51496;BME280;37572;52.094;4.870;2022-09-09T06:14:06;100557.41;;;16.58;95.98
51496;BME280;37572;52.094;4.870;2022-09-09T06:16:32;100550.19;;;16.47;94.04
51496;BME280;37572;52.094;4.870;2022-09-09T06:18:58;100555.28;;;16.66;93.74
51496;BME280;37572;52.094;4.870;2022-09-09T06:21:25;100556.63;;;16.63;93.16
51496;BME280;37572;52.094;4.870;2022-09-09T06:23:50;100554.59;;;16.81;93.25
51496;BME280;37572;52.094;4.870;2022-09-09T06:26:19;100547.66;;;16.90;93.53
51496;BME280;37572;52.094;4.870;2022-09-09T06:28:48;100543.59;;;16.92;93.46
51496;BME280;37572;52.094;4.870;2022-09-09T06:31:15;100555.28;;;16.93;93.07
51496;BME280;37572;52.094;4.870;2022-09-09T06:33:42;100548.28;;;17.02;92.85
51496;BME280;37572;52.094;4.870;2022-09-09T06:36:12;100548.31;;;17.40;92.99
51496;BME280;37572;52.094;4.870;2022-09-09T06:38:39;100556.28;;;17.52;89.85
51496;BME280;37572;52.094;4.870;2022-09-09T06:41:05;100554.84;;;17.44;89.92
51496;BME280;37572;52.094;4.870;2022-09-09T06:43:30;100551.81;;;17.35;89.79
51496;BME280;37572;52.094;4.870;2022-09-09T06:46:14;100550.59;;;17.16;91.14
51496;BME280;37572;52.094;4.870;2022-09-09T06:48:40;100564.75;;;17.18;91.59
51496;BME280;37572;52.094;4.870;2022-09-09T06:51:10;100559.88;;;17.20;91.55
51496;BME280;37572;52.094;4.870;2022-09-09T06:53:36;100560.75;;;16.98;92.29
51496;BME280;37572;52.094;4.870;2022-09-09T06:56:17;100565.22;;;17.09;92.64
51496;BME280;37572;52.094;4.870;2022-09-09T06:58:42;100571.72;;;17.03;92.80
51496;BME280;37572;52.094;4.870;2022-09-09T07:01:09;100554.00;;;17.01;93.07
51496;BME280;37572;52.094;4.870;2022-09-09T07:03:35;100556.47;;;17.02;93.57
51496;BME280;37572;52.094;4.870;2022-09-09T07:06:00;100552.34;;;17.00;93.59
51496;BME280;37572;52.094;4.870;2022-09-09T07:08:26;100557.53;;;17.01;93.19
51496;BME280;37572;52.094;4.870;2022-09-09T07:10:51;100550.88;;;16.87;93.48
51496;BME280;37572;52.094;4.870;2022-09-09T07:13:19;100557.22;;;16.98;93.72
51496;BME280;37572;52.094;4.870;2022-09-09T07:15:46;100567.56;;;16.96;93.91
51496;BME280;37572;52.094;4.870;2022-09-09T07:18:11;100559.44;;;17.01;93.42
51496;BME280;37572;52.094;4.870;2022-09-09T07:20:36;100558.94;;;17.09;93.54
51496;BME280;37572;52.094;4.870;2022-09-09T07:23:01;100567.97;;;17.15;93.17
51496;BME280;37572;52.094;4.870;2022-09-09T07:25:27;100564.19;;;17.16;93.45
51496;BME280;37572;52.094;4.870;2022-09-09T07:27:55;100564.22;;;17.21;93.07
51496;BME280;37572;52.094;4.870;2022-09-09T07:30:21;100560.31;;;17.06;92.98
51496;BME280;37572;52.094;4.870;2022-09-09T07:32:46;100569.09;;;17.14;92.93
51496;BME280;37572;52.094;4.870;2022-09-09T07:35:12;100559.94;;;16.98;92.94
51496;BME280;37572;52.094;4.870;2022-09-09T07:37:37;100566.28;;;17.08;92.76
51496;BME280;37572;52.094;4.870;2022-09-09T07:40:03;100563.69;;;17.24;92.43
51496;BME280;37572;52.094;4.870;2022-09-09T07:42:28;100568.06;;;17.25;92.24
51496;BME280;37572;52.094;4.870;2022-09-09T07:44:54;100569.09;;;17.14;91.88
51496;BME280;37572;52.094;4.870;2022-09-09T07:47:20;100572.69;;;17.24;91.79
51496;BME280;37572;52.094;4.870;2022-09-09T07:49:45;100576.31;;;17.35;91.47
51496;BME280;37572;52.094;4.870;2022-09-09T07:52:11;100564.41;;;17.46;91.32
51496;BME280;37572;52.094;4.870;2022-09-09T07:54:37;100574.13;;;17.32;91.19
51496;BME280;37572;52.094;4.870;2022-09-09T07:57:02;100570.94;;;17.45;90.33
51496;BME280;37572;52.094;4.870;2022-09-09T07:59:29;100567.47;;;17.55;89.86
51496;BME280;37572;52.094;4.870;2022-09-09T08:01:55;100561.78;;;17.62;89.61
51496;BME280;37572;52.094;4.870;2022-09-09T08:04:21;100562.28;;;17.54;89.72
51496;BME280;37572;52.094;4.870;2022-09-09T08:09:12;100568.88;;;17.63;89.53
51496;BME280;37572;52.094;4.870;2022-09-09T08:11:38;100560.00;;;17.78;89.51
51496;BME280;37572;52.094;4.870;2022-09-09T08:14:04;100561.88;;;17.77;89.42
51496;BME280;37572;52.094;4.870;2022-09-09T08:16:30;100560.81;;;17.78;88.90
51496;BME280;37572;52.094;4.870;2022-09-09T08:18:56;100561.25;;;17.65;88.88
51496;BME280;37572;52.094;4.870;2022-09-09T08:21:22;100566.69;;;17.60;88.80
51496;BME280;37572;52.094;4.870;2022-09-09T08:23:49;100570.75;;;17.57;88.52
51496;BME280;37572;52.094;4.870;2022-09-09T08:26:16;100567.75;;;17.54;89.44
51496;BME280;37572;52.094;4.870;2022-09-09T08:28:42;100565.81;;;17.54;88.94
51496;BME280;37572;52.094;4.870;2022-09-09T08:33:36;100560.03;;;17.45;88.54
51496;BME280;37572;52.094;4.870;2022-09-09T08:36:03;100570.13;;;17.45;88.30
51496;BME280;37572;52.094;4.870;2022-09-09T08:38:28;100576.00;;;17.32;88.66
51496;BME280;37572;52.094;4.870;2022-09-09T08:40:54;100575.81;;;17.38;88.62
51496;BME280;37572;52.094;4.870;2022-09-09T08:43:26;100581.28;;;17.43;88.05
51496;BME280;37572;52.094;4.870;2022-09-09T08:45:58;100573.81;;;17.66;88.39
51496;BME280;37572;52.094;4.870;2022-09-09T08:48:31;100577.00;;;17.58;87.92
51496;BME280;37572;52.094;4.870;2022-09-09T08:51:02;100575.28;;;17.84;87.18
51496;BME280;37572;52.094;4.870;2022-09-09T08:53:29;100581.38;;;18.07;86.55
51496;BME280;37572;52.094;4.870;2022-09-09T08:56:00;100576.22;;;18.05;85.85
51496;BME280;37572;52.094;4.870;2022-09-09T09:06:11;100578.66;;;18.07;86.29
51496;BME280;37572;52.094;4.870;2022-09-09T09:08:44;100578.91;;;18.00;85.57
51496;BME280;37572;52.094;4.870;2022-09-09T09:11:12;100579.44;;;17.97;86.04
51496;BME280;37572;52.094;4.870;2022-09-09T09:13:39;100589.28;;;18.08;86.23
51496;BME280;37572;52.094;4.870;2022-09-09T09:16:17;100586.31;;;18.10;86.33
51496;BME280;37572;52.094;4.870;2022-09-09T09:18:44;100582.56;;;18.21;85.20
51496;BME280;37572;52.094;4.870;2022-09-09T09:21:14;100588.75;;;18.11;85.50
51496;BME280;37572;52.094;4.870;2022-09-09T09:23:45;100589.28;;;18.08;85.57
51496;BME280;37572;52.094;4.870;2022-09-09T09:26:13;100597.19;;;17.99;85.88
51496;BME280;37572;52.094;4.870;2022-09-09T09:28:39;100601.31;;;18.07;86.83
51496;BME280;37572;52.094;4.870;2022-09-09T09:31:06;100590.84;;;17.89;88.18
51496;BME280;37572;52.094;4.870;2022-09-09T09:36:00;100596.03;;;17.90;89.74
51496;BME280;37572;52.094;4.870;2022-09-09T09:38:26;100589.69;;;17.79;90.13
51496;BME280;37572;52.094;4.870;2022-09-09T09:40:56;100594.72;;;17.98;90.04
51496;BME280;37572;52.094;4.870;2022-09-09T09:45:54;100590.50;;;17.85;89.06
51496;BME280;37572;52.094;4.870;2022-09-09T09:48:20;100594.06;;;17.86;88.83
51496;BME280;37572;52.094;4.870;2022-09-09T09:50:55;100590.34;;;17.97;88.28
51496;BME280;37572;52.094;4.870;2022-09-09T09:53:26;100586.88;;;18.12;88.48
51496;BME280;37572;52.094;4.870;2022-09-09T09:55:56;100590.69;;;18.16;89.01
51496;BME280;37572;52.094;4.870;2022-09-09T09:58:22;100587.06;;;17.95;90.46
51496;BME280;37572;52.094;4.870;2022-09-09T10:00:49;100588.75;;;18.01;91.04
51496;BME280;37572;52.094;4.870;2022-09-09T10:05:46;100589.28;;;17.98;92.40
51496;BME280;37572;52.094;4.870;2022-09-09T10:08:13;100571.19;;;17.87;93.07
51496;BME280;37572;52.094;4.870;2022-09-09T10:10:50;100576.56;;;17.76;93.13
51496;BME280;37572;52.094;4.870;2022-09-09T10:28:57;100584.66;;;19.59;85.39
51496;BME280;37572;52.094;4.870;2022-09-09T10:31:37;100577.31;;;19.50;83.51
51496;BME280;37572;52.094;4.870;2022-09-09T10:34:11;100582.44;;;19.61;83.82
51496;BME280;37572;52.094;4.870;2022-09-09T10:36:44;100573.69;;;19.65;84.92
51496;BME280;37572;52.094;4.870;2022-09-09T10:39:18;100580.84;;;19.60;84.26
51496;BME280;37572;52.094;4.870;2022-09-09T10:41:58;100569.97;;;19.14;82.80
51496;BME280;37572;52.094;4.870;2022-09-09T10:54:53;100580.84;;;18.88;84.77
51496;BME280;37572;52.094;4.870;2022-09-09T10:59:48;100578.34;;;18.71;85.99
51496;BME280;37572;52.094;4.870;2022-09-09T11:02:34;100572.34;;;18.75;86.72
51496;BME280;37572;52.094;4.870;2022-09-09T11:05:02;100576.66;;;18.60;87.58
51496;BME280;37572;52.094;4.870;2022-09-09T11:07:39;100570.63;;;18.43;88.97
51496;BME280;37572;52.094;4.870;2022-09-09T11:10:07;100578.50;;;18.39;88.37
51496;BME280;37572;52.094;4.870;2022-09-09T11:12:37;100585.56;;;18.30;88.43
51496;BME280;37572;52.094;4.870;2022-09-09T11:15:06;100576.84;;;18.33;88.75
51496;BME280;37572;52.094;4.870;2022-09-09T11:17:36;100580.16;;;18.35;89.25
51496;BME280;37572;52.094;4.870;2022-09-09T11:20:05;100582.56;;;18.26;90.27
51496;BME280;37572;52.094;4.870;2022-09-09T11:25:17;100582.03;;;18.29;92.36
51496;BME280;37572;52.094;4.870;2022-09-09T11:31:10;100587.09;;;18.05;94.10
51496;BME280;37572;52.094;4.870;2022-09-09T11:38:29;100579.97;;;17.94;97.55
51496;BME280;37572;52.094;4.870;2022-09-09T11:41:03;100578.06;;;17.89;98.89
51496;BME280;37572;52.094;4.870;2022-09-09T11:43:33;100580.06;;;17.67;96.43
51496;BME280;37572;52.094;4.870;2022-09-09T11:46:03;100582.34;;;17.85;98.99
51496;BME280;37572;52.094;4.870;2022-09-09T11:48:42;100579.84;;;18.21;99.51
51496;BME280;37572;52.094;4.870;2022-09-09T11:51:11;100578.44;;;18.18;98.92
51496;BME280;37572;52.094;4.870;2022-09-09T11:53:47;100584.75;;;18.29;96.76
51496;BME280;37572;52.094;4.870;2022-09-09T11:56:22;100572.03;;;18.56;96.40
51496;BME280;37572;52.094;4.870;2022-09-09T11:58:54;100579.88;;;18.36;96.07
51496;BME280;37572;52.094;4.870;2022-09-09T12:03:51;100578.03;;;18.68;93.29
51496;BME280;37572;52.094;4.870;2022-09-09T12:06:33;100574.84;;;19.12;93.53
51496;BME280;37572;52.094;4.870;2022-09-09T12:09:08;100578.63;;;18.75;92.04
51496;BME280;37572;52.094;4.870;2022-09-09T12:11:37;100578.06;;;18.73;92.40
51496;BME280;37572;52.094;4.870;2022-09-09T12:14:02;100587.31;;;18.62;92.69
51496;BME280;37572;52.094;4.870;2022-09-09T12:16:37;100574.50;;;18.67;92.86
51496;BME280;37572;52.094;4.870;2022-09-09T12:19:21;100571.44;;;18.43;93.30
51496;BME280;37572;52.094;4.870;2022-09-09T12:24:19;100573.63;;;18.46;93.20
51496;BME280;37572;52.094;4.870;2022-09-09T12:29:23;100564.38;;;18.52;91.72
51496;BME280;37572;52.094;4.870;2022-09-09T12:31:56;100570.69;;;18.58;91.02
51496;BME280;37572;52.094;4.870;2022-09-09T12:37:14;100563.03;;;18.50;90.64
51496;BME280;37572;52.094;4.870;2022-09-09T12:39:51;100572.81;;;18.51;90.80
51496;BME280;37572;52.094;4.870;2022-09-09T12:42:19;100567.97;;;18.74;90.85
51496;BME280;37572;52.094;4.870;2022-09-09T12:44:57;100569.06;;;18.72;90.79
51496;BME280;37572;52.094;4.870;2022-09-09T12:47:29;100563.03;;;18.55;89.35
51496;BME280;37572;52.094;4.870;2022-09-09T12:49:56;100568.50;;;18.50;89.53
51496;BME280;37572;52.094;4.870;2022-09-09T12:52:26;100573.13;;;18.65;91.94
51496;BME280;37572;52.094;4.870;2022-09-09T12:54:54;100569.53;;;18.39;92.58
51496;BME280;37572;52.094;4.870;2022-09-09T12:57:21;100572.75;;;18.25;94.83
51496;BME280;37572;52.094;4.870;2022-09-09T12:59:49;100567.56;;;18.18;95.48
51496;BME280;37572;52.094;4.870;2022-09-09T13:02:19;100563.66;;;17.99;96.29
51496;BME280;37572;52.094;4.870;2022-09-09T13:04:45;100568.06;;;18.10;97.00
51496;BME280;37572;52.094;4.870;2022-09-09T13:07:11;100562.31;;;18.02;97.47
51496;BME280;37572;52.094;4.870;2022-09-09T13:09:37;100567.75;;;18.02;97.12
51496;BME280;37572;52.094;4.870;2022-09-09T13:12:02;100572.66;;;18.05;97.26
51496;BME280;37572;52.094;4.870;2022-09-09T13:14:31;100580.03;;;18.04;97.25
51496;BME280;37572;52.094;4.870;2022-09-09T13:17:00;100575.41;;;18.10;96.75
51496;BME280;37572;52.094;4.870;2022-09-09T13:19:25;100575.19;;;18.16;95.70
51496;BME280;37572;52.094;4.870;2022-09-09T13:21:53;100569.94;;;18.05;96.39
51496;BME280;37572;52.094;4.870;2022-09-09T13:26:58;100573.22;;;18.07;96.41
51496;BME280;37572;52.094;4.870;2022-09-09T13:29:23;100569.94;;;18.05;96.56
51496;BME280;37572;52.094;4.870;2022-09-09T13:31:48;100574.53;;;17.99;96.93
51496;BME280;37572;52.094;4.870;2022-09-09T13:34:28;100570.06;;;18.30;95.52
51496;BME280;37572;52.094;4.870;2022-09-09T13:36:58;100573.81;;;18.14;96.74
51496;BME280;37572;52.094;4.870;2022-09-09T13:39:24;100578.09;;;17.99;96.06
51496;BME280;37572;52.094;4.870;2022-09-09T13:41:49;100578.66;;;18.02;96.17
51496;BME280;37572;52.094;4.870;2022-09-09T13:44:22;100582.22;;;18.07;96.51
51496;BME280;37572;52.094;4.870;2022-09-09T13:46:59;100587.63;;;18.02;97.37
51496;BME280;37572;52.094;4.870;2022-09-09T13:49:26;100593.88;;;17.97;97.10
51496;BME280;37572;52.094;4.870;2022-09-09T13:52:02;100586.72;;;17.86;98.11
51496;BME280;37572;52.094;4.870;2022-09-09T13:54:27;100587.47;;;17.76;98.27
51496;BME280;37572;52.094;4.870;2022-09-09T13:56:52;100593.34;;;17.58;99.25
51496;BME280;37572;52.094;4.870;2022-09-09T13:59:19;100587.88;;;17.58;98.99
51496;BME280;37572;52.094;4.870;2022-09-09T14:01:49;100581.25;;;17.81;99.12
51496;BME280;37572;52.094;4.870;2022-09-09T14:04:14;100576.78;;;18.07;98.63
51496;BME280;37572;52.094;4.870;2022-09-09T14:06:40;100581.44;;;18.22;98.43
51496;BME280;37572;52.094;4.870;2022-09-09T14:09:07;100576.09;;;18.48;98.50
51496;BME280;37572;52.094;4.870;2022-09-09T14:11:33;100578.66;;;18.91;97.48
51496;BME280;37572;52.094;4.870;2022-09-09T14:13:58;100577.84;;;18.90;94.26
51496;BME280;37572;52.094;4.870;2022-09-09T14:16:23;100577.88;;;19.16;93.04
51496;BME280;37572;52.094;4.870;2022-09-09T14:18:48;100578.41;;;19.02;91.78
51496;BME280;37572;52.094;4.870;2022-09-09T14:21:14;100576.47;;;19.08;90.37
51496;BME280;37572;52.094;4.870;2022-09-09T14:23:40;100574.88;;;19.07;89.44
51496;BME280;37572;52.094;4.870;2022-09-09T14:26:05;100577.03;;;19.05;89.91
51496;BME280;37572;52.094;4.870;2022-09-09T14:28:31;100569.94;;;18.99;90.16
51496;BME280;37572;52.094;4.870;2022-09-09T14:30:58;100572.31;;;18.69;89.40
51496;BME280;37572;52.094;4.870;2022-09-09T14:33:23;100583.16;;;18.39;89.86
51496;BME280;37572;52.094;4.870;2022-09-09T14:35:54;100586.41;;;18.41;92.14
51496;BME280;37572;52.094;4.870;2022-09-09T14:38:20;100584.22;;;18.32;92.06
51496;BME280;37572;52.094;4.870;2022-09-09T14:40:45;100584.28;;;18.48;91.92